createdAt,value
2023-05-13T00:02:52.982Z,100642.19
2023-05-13T00:07:55.903Z,100658.75
2023-05-13T00:12:58.720Z,100648.47
2023-05-13T00:18:02.926Z,100654.00
2023-05-13T00:23:07.725Z,100651.81
2023-05-13T00:28:10.800Z,100661.13
2023-05-13T00:33:14.963Z,100664.00
2023-05-13T00:38:17.765Z,100665.38
2023-05-13T00:43:20.708Z,100666.25
2023-05-13T00:48:24.975Z,100661.22
2023-05-13T00:53:27.709Z,100660.63
2023-05-13T00:58:30.498Z,100656.38
2023-05-13T01:03:40.073Z,100657.69
2023-05-13T01:08:46.820Z,100656.25
2023-05-13T01:13:50.460Z,100660.16
2023-05-13T01:18:57.875Z,100667.63
2023-05-13T01:24:02.680Z,100668.94
2023-05-13T01:29:05.874Z,100671.91
2023-05-13T01:34:10.414Z,100674.94
2023-05-13T01:39:15.357Z,100673.34
2023-05-13T01:44:18.331Z,100668.44
2023-05-13T01:49:21.359Z,100681.28
2023-05-13T01:54:25.893Z,100655.34
2023-05-13T01:59:34.310Z,100677.44
2023-05-13T02:04:37.800Z,100684.06
2023-05-13T02:09:42.406Z,100691.47
2023-05-13T02:14:45.245Z,100677.44
2023-05-13T02:19:48.022Z,100679.50
2023-05-13T02:24:52.464Z,100679.72
2023-05-13T02:29:56.043Z,100677.28
2023-05-13T02:34:59.092Z,100678.38
2023-05-13T02:40:03.623Z,100679.59
2023-05-13T02:45:07.696Z,100676.28
2023-05-13T02:50:13.615Z,100680.94
2023-05-13T02:55:19.265Z,100669.66
2023-05-13T03:00:22.789Z,100666.25
2023-05-13T03:05:27.194Z,100672.72
2023-05-13T03:10:32.781Z,100674.63
2023-05-13T03:15:35.529Z,100677.56
2023-05-13T03:20:38.318Z,100686.72
2023-05-13T03:25:42.670Z,100683.41
2023-05-13T03:30:46.077Z,100692.69
2023-05-13T03:35:53.254Z,100690.22
2023-05-13T03:41:02.812Z,100698.50
2023-05-13T03:46:05.769Z,100696.06
2023-05-13T03:51:08.729Z,100703.25
2023-05-13T03:56:13.620Z,100704.34
2023-05-13T04:01:17.042Z,100702.63
2023-05-13T04:06:19.901Z,100701.00
2023-05-13T04:11:24.813Z,100707.25
2023-05-13T04:16:27.934Z,100701.13
2023-05-13T04:21:31.325Z,100711.16
2023-05-13T04:26:35.555Z,100706.50
2023-05-13T04:31:38.433Z,100723.59
2023-05-13T04:36:41.396Z,100720.91
2023-05-13T04:41:46.626Z,100720.78
2023-05-13T04:46:50.470Z,100725.19
2023-05-13T04:51:54.198Z,100731.34
2023-05-13T04:56:58.803Z,100731.22
2023-05-13T05:02:01.907Z,100740.13
2023-05-13T05:07:05.379Z,100736.34
2023-05-13T05:12:10.565Z,100741.72
2023-05-13T05:17:16.802Z,100748.69
2023-05-13T05:22:19.887Z,100754.84
2023-05-13T05:27:24.129Z,100757.53
2023-05-13T05:32:27.090Z,100762.78
2023-05-13T05:37:30.768Z,100768.16
2023-05-13T05:42:35.644Z,100769.84
2023-05-13T05:47:39.012Z,100769.00
2023-05-13T05:52:42.050Z,100765.34
2023-05-13T05:57:48.883Z,100766.94
2023-05-13T06:02:52.077Z,100762.41
2023-05-13T06:07:55.506Z,100763.28
2023-05-13T06:13:00.224Z,100768.44
2023-05-13T06:18:06.066Z,100763.06
2023-05-13T06:23:10.781Z,100763.91
2023-05-13T06:28:15.045Z,100770.88
2023-05-13T06:33:18.111Z,100772.47
2023-05-13T06:38:21.079Z,100776.03
2023-05-13T06:43:26.874Z,100766.91
2023-05-13T06:48:33.777Z,100769.47
2023-05-13T06:53:37.353Z,100770.31
2023-05-13T06:58:41.552Z,100774.59
2023-05-13T07:03:44.402Z,100767.28
2023-05-13T07:08:47.277Z,100765.06
2023-05-13T07:13:51.428Z,100763.56
2023-05-13T07:18:54.924Z,100777.31
2023-05-13T07:23:57.753Z,100767.41
2023-05-13T07:29:02.626Z,100761.72
2023-05-13T07:34:06.042Z,100768.97
2023-05-13T07:39:09.288Z,100769.19
2023-05-13T07:44:13.508Z,100763.44
2023-05-13T07:49:16.360Z,100769.75
2023-05-13T07:54:19.318Z,100752.72
2023-05-13T07:59:23.489Z,100757.56
2023-05-13T08:04:26.971Z,100760.66
2023-05-13T08:09:29.764Z,100754.94
2023-05-13T08:14:33.935Z,100758.34
2023-05-13T08:19:36.998Z,100759.69
2023-05-13T08:24:40.817Z,100760.19
2023-05-13T08:29:44.977Z,100766.81
2023-05-13T08:34:47.821Z,100759.28
2023-05-13T08:39:50.675Z,100756.16
2023-05-13T08:44:54.826Z,100755.94
2023-05-13T08:49:57.653Z,100753.69
2023-05-13T08:55:00.624Z,100756.75
2023-05-13T09:00:05.288Z,100760.22
2023-05-13T09:05:08.990Z,100758.13
2023-05-13T09:10:12.213Z,100755.22
2023-05-13T09:15:17.397Z,100747.88
2023-05-13T09:20:21.165Z,100753.06
2023-05-13T09:25:24.983Z,100750.97
2023-05-13T09:30:29.974Z,100743.66
2023-05-13T09:35:32.967Z,100753.34
2023-05-13T09:40:35.725Z,100752.25
2023-05-13T09:45:39.820Z,100743.09
2023-05-13T09:50:49.734Z,100733.84
2023-05-13T09:55:54.198Z,100731.47
2023-05-13T10:00:58.454Z,100728.06
2023-05-13T10:06:03.424Z,100726.69
2023-05-13T10:11:06.925Z,100729.06
2023-05-13T10:16:11.110Z,100720.94
2023-05-13T10:21:14.071Z,100732.00
2023-05-13T10:26:24.460Z,100730.41
2023-05-13T10:31:35.709Z,100722.13
2023-05-13T10:37:03.045Z,100718.13
2023-05-13T10:42:37.722Z,100713.34
2023-05-13T10:47:42.093Z,100720.56
2023-05-13T10:52:47.787Z,100713.03
2023-05-13T10:58:09.723Z,100711.34
2023-05-13T11:03:29.815Z,100713.47
2023-05-13T11:08:42.523Z,100704.28
2023-05-13T11:13:45.506Z,100713.38
2023-05-13T11:18:50.270Z,100718.78
2023-05-13T11:23:54.085Z,100712.84
2023-05-13T11:28:58.211Z,100724.41
2023-05-13T11:34:09.429Z,100706.47
2023-05-13T11:39:14.401Z,100698.16
2023-05-13T11:44:18.202Z,100707.13
2023-05-13T11:49:35.500Z,100703.81
2023-05-13T11:54:42.959Z,100700.88
2023-05-13T11:59:51.069Z,100703.19
2023-05-13T12:04:55.321Z,100711.16
2023-05-13T12:09:58.749Z,100703.22
2023-05-13T12:15:02.540Z,100702.13
2023-05-13T12:20:11.490Z,100696.72
2023-05-13T12:25:40.461Z,100696.94
2023-05-13T12:30:44.203Z,100707.97
2023-05-13T12:35:49.425Z,100706.03
2023-05-13T12:40:52.416Z,100711.53
2023-05-13T12:45:56.531Z,100720.59
2023-05-13T12:51:02.121Z,100722.16
2023-05-13T12:56:05.902Z,100717.50
2023-05-13T13:01:08.826Z,100721.56
2023-05-13T13:06:13.055Z,100731.97
2023-05-13T13:11:18.881Z,100717.75
2023-05-13T13:16:21.912Z,100723.53
2023-05-13T13:21:26.087Z,100728.44
2023-05-13T13:26:28.857Z,100725.38
2023-05-13T13:31:31.771Z,100730.47
2023-05-13T13:36:35.881Z,100743.25
2023-05-13T13:41:38.841Z,100732.53
2023-05-13T13:46:41.660Z,100727.84
2023-05-13T13:51:45.910Z,100724.16
2023-05-13T13:56:48.998Z,100722.84
2023-05-13T14:01:52.727Z,100725.28
2023-05-13T14:06:57.210Z,100734.25
2023-05-13T14:12:00.012Z,100733.03
2023-05-13T14:17:02.830Z,100731.72
2023-05-13T14:22:07.179Z,100732.09
2023-05-13T14:27:10.046Z,100728.66
2023-05-13T14:32:12.822Z,100722.28
2023-05-13T14:37:16.987Z,100734.06
2023-05-13T14:42:21.103Z,100727.41
2023-05-13T14:47:24.038Z,100739.31
2023-05-13T14:52:28.169Z,100729.03
2023-05-13T14:57:31.008Z,100722.50
2023-05-13T15:02:33.924Z,100726.78
2023-05-13T15:07:38.232Z,100718.94
2023-05-13T15:12:41.052Z,100722.53
2023-05-13T15:17:44.025Z,100721.16
2023-05-13T15:22:48.352Z,100725.38
2023-05-13T15:27:51.438Z,100730.34
2023-05-13T15:32:54.217Z,100730.25
2023-05-13T15:37:58.400Z,100735.22
2023-05-13T15:43:01.214Z,100724.16
2023-05-13T15:48:04.128Z,100721.19
2023-05-13T15:53:08.361Z,100722.81
2023-05-13T15:58:11.182Z,100730.78
2023-05-13T16:03:13.977Z,100726.50
2023-05-13T16:08:19.260Z,100726.44
2023-05-13T16:13:22.638Z,100724.16
2023-05-13T16:18:25.482Z,100719.75
2023-05-13T16:23:29.654Z,100713.56
2023-05-13T16:28:32.444Z,100717.31
2023-05-13T16:33:36.200Z,100724.75
2023-05-13T16:38:41.294Z,100716.03
2023-05-13T16:43:44.303Z,100724.63
2023-05-13T16:48:47.145Z,100726.81
2023-05-13T16:53:51.347Z,100716.56
2023-05-13T16:58:54.227Z,100722.53
2023-05-13T17:03:57.030Z,100714.59
2023-05-13T17:09:01.150Z,100712.53
2023-05-13T17:14:04.237Z,100710.81
2023-05-13T17:19:07.092Z,100720.84
2023-05-13T17:24:11.391Z,100722.66
2023-05-13T17:29:14.217Z,100719.25
2023-05-13T17:34:16.974Z,100717.69
2023-05-13T17:39:21.146Z,100728.63
2023-05-13T17:44:24.143Z,100726.31
2023-05-13T17:49:27.013Z,100725.81
2023-05-13T17:54:31.607Z,100729.03
2023-05-13T17:59:34.405Z,100737.47
2023-05-13T18:04:37.199Z,100733.44
2023-05-13T18:09:41.502Z,100735.50
2023-05-13T18:14:44.272Z,100739.44
2023-05-13T18:19:47.070Z,100743.56
2023-05-13T18:24:51.308Z,100748.34
2023-05-13T18:29:54.241Z,100757.53
2023-05-13T18:34:57.032Z,100748.09
2023-05-13T18:40:01.878Z,100747.69
2023-05-13T18:45:05.447Z,100752.59
2023-05-13T18:50:08.600Z,100753.66
2023-05-13T18:55:12.834Z,100758.81
2023-05-13T19:00:16.722Z,100757.91
2023-05-13T19:05:20.513Z,100761.25
2023-05-13T19:10:25.029Z,100761.00
2023-05-13T19:15:27.974Z,100770.91
2023-05-13T19:20:30.791Z,100771.75
2023-05-13T19:25:35.100Z,100781.41
2023-05-13T19:30:37.938Z,100778.63
2023-05-13T19:35:40.705Z,100772.16
2023-05-13T19:40:45.297Z,100776.31
2023-05-13T19:45:48.081Z,100778.03
2023-05-13T19:50:53.350Z,100773.41
2023-05-13T19:55:57.628Z,100775.00
2023-05-13T20:01:01.189Z,100784.66
2023-05-13T20:06:04.161Z,100784.78
2023-05-13T20:11:08.360Z,100779.78
2023-05-13T20:16:11.132Z,100779.53
2023-05-13T20:21:13.891Z,100783.81
2023-05-13T20:26:18.063Z,100783.69
2023-05-13T20:31:21.011Z,100780.91
2023-05-13T20:36:23.834Z,100778.81
2023-05-13T20:41:28.119Z,100776.00
2023-05-13T20:46:31.165Z,100776.72
2023-05-13T20:51:34.123Z,100773.06
2023-05-13T20:56:38.442Z,100769.28
2023-05-13T21:01:47.058Z,100768.19
2023-05-13T21:06:49.846Z,100762.66
2023-05-13T21:11:53.953Z,100766.94
2023-05-13T21:16:56.786Z,100766.00
2023-05-13T21:22:01.540Z,100765.88
2023-05-13T21:27:06.432Z,100764.75
2023-05-13T21:32:09.234Z,100766.34
2023-05-13T21:37:12.036Z,100767.06
2023-05-13T21:42:16.154Z,100767.97
2023-05-13T21:47:18.989Z,100771.50
2023-05-13T21:52:21.841Z,100763.16
2023-05-13T21:57:26.277Z,100768.56
2023-05-13T22:02:29.163Z,100760.34
2023-05-13T22:07:32.103Z,100761.94
2023-05-13T22:12:36.727Z,100758.25
2023-05-13T22:17:39.599Z,100754.66
2023-05-13T22:22:42.487Z,100750.00
2023-05-13T22:27:47.643Z,100746.44
2023-05-13T22:32:50.968Z,100751.69
2023-05-13T22:37:53.811Z,100745.31
2023-05-13T22:42:57.962Z,100748.03
2023-05-13T22:48:00.805Z,100747.03
2023-05-13T22:53:03.652Z,100734.44
2023-05-13T22:58:08.070Z,100745.94
2023-05-13T23:03:10.945Z,100744.09
2023-05-13T23:08:13.823Z,100743.13
2023-05-13T23:13:17.925Z,100744.09
2023-05-13T23:18:20.747Z,100731.38
2023-05-13T23:23:23.486Z,100745.81
2023-05-13T23:28:27.635Z,100734.94
2023-05-13T23:33:30.418Z,100734.06
2023-05-13T23:38:33.273Z,100721.59
2023-05-13T23:43:37.436Z,100720.69
2023-05-13T23:48:40.192Z,100722.53
2023-05-13T23:53:42.962Z,100711.91
2023-05-13T23:58:47.242Z,100711.03
